createdAt,value
2022-11-01T00:00:05.762Z,6.43
2022-11-01T00:02:42.850Z,6.30
2022-11-01T00:05:13.260Z,6.15
2022-11-01T00:07:43.453Z,6.28
2022-11-01T00:12:48.596Z,6.57
2022-11-01T00:15:18.846Z,6.32
2022-11-01T00:17:49.008Z,7.65
2022-11-01T00:20:19.415Z,8.15
2022-11-01T00:22:49.666Z,9.55
2022-11-01T00:25:22.167Z,7.95
2022-11-01T00:27:52.366Z,9.52
2022-11-01T00:30:22.535Z,8.75
2022-11-01T00:32:52.717Z,9.25
2022-11-01T00:35:22.856Z,9.90
2022-11-01T00:37:53.091Z,9.80
2022-11-01T00:40:25.548Z,9.60
2022-11-01T00:42:55.690Z,8.40
2022-11-01T00:45:25.836Z,9.27
2022-11-01T00:47:56.034Z,8.98
2022-11-01T00:50:26.222Z,9.65
2022-11-01T00:52:56.411Z,8.50
2022-11-01T00:55:29.001Z,8.48
2022-11-01T00:57:59.476Z,8.43
2022-11-01T01:00:42.220Z,8.80
2022-11-01T01:03:13.415Z,8.93
2022-11-01T01:05:43.576Z,8.65
2022-11-01T01:08:13.840Z,8.02
2022-11-01T01:10:46.364Z,10.02
2022-11-01T01:13:16.704Z,10.38
2022-11-01T01:15:46.903Z,11.52
2022-11-01T01:18:17.363Z,11.38
2022-11-01T01:20:47.739Z,10.90
2022-11-01T01:23:17.948Z,8.82
2022-11-01T01:25:50.461Z,10.45
2022-11-01T01:28:20.674Z,10.00
2022-11-01T01:30:50.839Z,10.30
2022-11-01T01:33:20.724Z,10.38
2022-11-01T01:35:50.919Z,10.07
2022-11-01T01:38:21.071Z,10.02
2022-11-01T01:40:53.519Z,9.00
2022-11-01T01:43:23.757Z,8.73
2022-11-01T01:45:53.911Z,9.20
2022-11-01T01:48:27.713Z,9.07
2022-11-01T01:51:02.103Z,9.32
2022-11-01T01:53:35.951Z,9.85
2022-11-01T01:56:13.094Z,10.40
2022-11-01T01:58:45.876Z,10.55
2022-11-01T02:01:16.083Z,10.48
2022-11-01T02:03:47.153Z,10.05
2022-11-01T02:06:20.165Z,10.65
2022-11-01T02:08:52.823Z,13.10
2022-11-01T02:11:25.972Z,16.83
2022-11-01T02:13:56.122Z,15.82
2022-11-01T02:16:45.489Z,10.13
2022-11-01T02:19:54.395Z,12.35
2022-11-01T02:22:34.393Z,10.63
2022-11-01T02:25:23.579Z,9.63
2022-11-01T02:28:11.628Z,8.70
2022-11-01T02:30:48.216Z,8.98
2022-11-01T02:33:32.838Z,9.30
2022-11-01T02:36:08.132Z,9.43
2022-11-01T02:38:42.845Z,9.35
2022-11-01T02:41:17.653Z,9.93
2022-11-01T02:43:55.028Z,10.02
2022-11-01T02:46:38.430Z,10.88
2022-11-01T02:49:14.003Z,9.23
2022-11-01T02:51:46.096Z,9.57
2022-11-01T02:54:23.567Z,9.32
2022-11-01T02:56:53.905Z,10.85
2022-11-01T02:59:28.423Z,11.27
2022-11-01T03:02:04.707Z,14.25
2022-11-01T03:04:38.041Z,14.02
2022-11-01T03:07:11.707Z,15.25
2022-11-01T03:09:42.412Z,16.13
2022-11-01T03:12:18.895Z,14.30
2022-11-01T03:14:57.664Z,14.50
2022-11-01T03:17:35.403Z,13.45
2022-11-01T03:20:16.459Z,14.15
2022-11-01T03:22:49.461Z,13.18
2022-11-01T03:25:35.713Z,14.32
2022-11-01T03:28:09.342Z,13.80
2022-11-01T03:30:44.323Z,14.68
2022-11-01T03:33:16.361Z,14.38
2022-11-01T03:35:52.390Z,14.30
2022-11-01T03:38:27.236Z,13.07
2022-11-01T03:41:03.292Z,12.00
2022-11-01T03:43:34.719Z,11.65
2022-11-01T03:46:04.879Z,12.90
2022-11-01T03:48:35.002Z,14.77
2022-11-01T03:51:07.759Z,12.90
2022-11-01T03:53:38.019Z,14.20
2022-11-01T03:56:08.642Z,13.00
2022-11-01T03:58:46.024Z,13.20
2022-11-01T04:01:17.764Z,13.55
2022-11-01T04:03:48.282Z,14.75
2022-11-01T04:06:20.751Z,14.43
2022-11-01T04:08:50.869Z,13.32
2022-11-01T04:11:21.043Z,9.75
2022-11-01T04:13:51.183Z,10.32
2022-11-01T04:16:33.826Z,11.73
2022-11-01T04:19:16.474Z,13.60
2022-11-01T04:21:49.144Z,11.85
2022-11-01T04:24:21.058Z,11.90
2022-11-01T04:26:51.549Z,12.40
2022-11-01T04:29:21.697Z,11.23
2022-11-01T04:31:51.846Z,11.43
2022-11-01T04:34:42.012Z,12.75
2022-11-01T04:37:14.973Z,10.68
2022-11-01T04:39:45.246Z,11.82
2022-11-01T04:42:15.456Z,10.65
2022-11-01T04:44:46.818Z,10.20
2022-11-01T04:47:16.985Z,10.93
2022-11-01T04:49:47.183Z,10.27
2022-11-01T04:52:19.784Z,11.32
2022-11-01T04:54:49.949Z,11.80
2022-11-01T04:57:25.453Z,11.35
2022-11-01T04:59:56.263Z,11.50
2022-11-01T05:02:26.979Z,11.00
2022-11-01T05:04:57.133Z,11.52
2022-11-01T05:07:30.953Z,11.93
2022-11-01T05:10:01.155Z,12.70
2022-11-01T05:12:31.334Z,12.07
2022-11-01T05:15:01.529Z,11.23
2022-11-01T05:17:31.680Z,11.30
2022-11-01T05:20:01.845Z,13.30
2022-11-01T05:22:34.344Z,12.18
2022-11-01T05:25:04.471Z,13.75
2022-11-01T05:27:34.675Z,13.20
2022-11-01T05:30:05.050Z,13.75
2022-11-01T05:32:35.631Z,14.13
2022-11-01T05:35:06.333Z,14.35
2022-11-01T05:37:38.827Z,13.13
2022-11-01T05:40:10.495Z,12.98
2022-11-01T05:42:41.536Z,13.73
2022-11-01T05:45:12.762Z,13.35
2022-11-01T05:47:44.073Z,14.50
2022-11-01T05:50:15.135Z,13.70
2022-11-01T05:52:47.784Z,13.43
2022-11-01T05:55:17.962Z,12.68
2022-11-01T06:00:18.296Z,12.63
2022-11-01T06:02:48.516Z,12.65
2022-11-01T06:05:18.873Z,12.18
2022-11-01T06:07:51.344Z,12.48
2022-11-01T06:10:21.651Z,11.25
2022-11-01T06:12:51.962Z,12.40
2022-11-01T06:15:22.207Z,12.95
2022-11-01T06:17:52.505Z,11.38
2022-11-01T06:20:22.653Z,11.75
2022-11-01T06:22:55.121Z,12.40
2022-11-01T06:25:25.910Z,12.77
2022-11-01T06:27:57.020Z,12.23
2022-11-01T06:30:27.161Z,12.90
2022-11-01T06:33:02.191Z,12.13
2022-11-01T06:35:32.632Z,13.57
2022-11-01T06:38:09.420Z,15.35
2022-11-01T06:40:39.946Z,14.43
2022-11-01T06:43:10.141Z,13.95
2022-11-01T06:45:40.315Z,13.55
2022-11-01T06:48:10.542Z,14.40
2022-11-01T06:50:40.809Z,14.00
2022-11-01T06:53:13.363Z,13.13
2022-11-01T06:55:43.550Z,13.27
2022-11-01T06:58:13.735Z,13.20
2022-11-01T07:00:44.026Z,12.63
2022-11-01T07:03:15.807Z,13.95
2022-11-01T07:05:46.216Z,13.52
2022-11-01T07:08:19.011Z,13.32
2022-11-01T07:10:54.416Z,12.65
2022-11-01T07:13:24.613Z,13.07
2022-11-01T07:15:54.746Z,14.00
2022-11-01T07:18:24.903Z,13.20
2022-11-01T07:20:55.073Z,12.27
2022-11-01T07:23:29.344Z,12.52
2022-11-01T07:28:29.497Z,9.93
2022-11-01T07:31:00.029Z,11.38
2022-11-01T07:33:30.111Z,11.48
2022-11-01T07:36:00.261Z,13.88
2022-11-01T07:38:32.999Z,15.30
2022-11-01T07:41:03.164Z,12.00
2022-11-01T07:43:34.374Z,12.05
2022-11-01T07:46:07.412Z,11.88
2022-11-01T07:48:37.945Z,12.15
2022-11-01T07:51:09.715Z,11.38
2022-11-01T07:53:42.369Z,10.15
2022-11-01T07:56:14.334Z,10.18
2022-11-01T07:58:44.623Z,11.70
2022-11-01T08:01:14.939Z,11.15
2022-11-01T08:03:44.855Z,18.25
2022-11-01T08:06:14.828Z,13.77
2022-11-01T08:08:47.357Z,14.40
2022-11-01T08:11:17.257Z,16.48
2022-11-01T08:13:47.763Z,10.57
2022-11-01T08:16:18.413Z,8.57
2022-11-01T08:18:51.682Z,7.55
2022-11-01T08:21:21.899Z,7.72
2022-11-01T08:23:54.463Z,8.13
2022-11-01T08:26:25.400Z,8.30
2022-11-01T08:28:55.253Z,8.35
2022-11-01T08:31:25.117Z,6.63
2022-11-01T08:33:55.260Z,6.78
2022-11-01T08:36:25.660Z,6.18
2022-11-01T08:38:58.145Z,5.95
2022-11-01T08:41:28.406Z,6.20
2022-11-01T08:43:59.844Z,6.00
2022-11-01T08:46:29.721Z,6.63
2022-11-01T08:49:00.567Z,5.07
2022-11-01T08:51:32.662Z,5.93
2022-11-01T08:54:05.435Z,5.80
2022-11-01T08:56:35.436Z,5.90
2022-11-01T08:59:05.679Z,6.20
2022-11-01T09:01:35.714Z,5.60
2022-11-01T09:04:06.377Z,5.65
2022-11-01T09:06:36.629Z,5.15
2022-11-01T09:09:10.208Z,4.10
2022-11-01T09:11:40.397Z,5.05
2022-11-01T09:14:10.332Z,3.80
2022-11-01T09:16:40.468Z,4.57
2022-11-01T09:19:10.635Z,4.63
2022-11-01T09:21:40.757Z,3.88
2022-11-01T09:24:14.100Z,3.97
2022-11-01T09:26:44.395Z,3.67
2022-11-01T09:29:14.594Z,3.30
2022-11-01T09:31:44.506Z,3.13
2022-11-01T09:34:14.692Z,2.60
2022-11-01T09:36:44.971Z,2.65
2022-11-01T09:39:22.010Z,2.38
2022-11-01T09:41:54.731Z,2.83
2022-11-01T09:44:29.944Z,2.60
2022-11-01T09:47:03.461Z,2.15
2022-11-01T09:49:38.110Z,2.28
2022-11-01T09:52:08.942Z,2.38
2022-11-01T09:54:41.450Z,2.40
2022-11-01T09:57:22.140Z,2.60
2022-11-01T10:00:04.410Z,2.40
2022-11-01T10:02:59.101Z,2.50
2022-11-01T10:05:41.185Z,2.15
2022-11-01T10:08:19.752Z,2.85
2022-11-01T10:11:01.821Z,2.40
2022-11-01T10:13:46.137Z,2.65
2022-11-01T10:18:57.747Z,1.73
2022-11-01T10:21:31.468Z,1.23
2022-11-01T10:24:06.167Z,1.88
2022-11-01T10:26:44.438Z,2.85
2022-11-01T10:29:19.798Z,2.35
2022-11-01T10:31:54.447Z,1.88
2022-11-01T10:34:29.786Z,2.00
2022-11-01T10:37:17.199Z,1.90
2022-11-01T10:39:59.919Z,1.67
2022-11-01T10:42:35.688Z,2.67
2022-11-01T10:45:08.868Z,2.13
2022-11-01T10:47:42.707Z,2.47
2022-11-01T10:50:20.491Z,3.17
2022-11-01T10:52:55.574Z,2.15
2022-11-01T10:55:29.494Z,2.13
2022-11-01T11:00:34.602Z,1.83
2022-11-01T11:03:21.023Z,1.50
2022-11-01T11:05:51.776Z,1.90
2022-11-01T11:08:25.052Z,1.27
2022-11-01T11:11:04.403Z,1.75
2022-11-01T11:13:38.016Z,1.77
2022-11-01T11:16:08.880Z,2.00
2022-11-01T11:18:43.507Z,1.60
2022-11-01T11:21:15.788Z,1.27
2022-11-01T11:23:47.912Z,1.67
2022-11-01T11:26:21.281Z,1.48
2022-11-01T11:28:57.095Z,1.65
2022-11-01T11:31:30.190Z,1.50
2022-11-01T11:34:03.763Z,1.53
2022-11-01T11:36:37.086Z,1.02
2022-11-01T11:39:08.228Z,3.70
